Observation data for Morton on 07/12/2020      Previous  Date  Next       Current Mesonet Observations  Soil Data  Daily Summary Page  Observations in Plain Language
KMNS 120500Z 20012KT 30/06 A3004 RMK A01 T03030059  RH  022%=      5-min Rain = 0
KMNS 120505Z 20011KT 30/06 A3004 RMK A01 T03040058  RH  022%=      5-min Rain = 0
KMNS 120510Z 21010KT 30/06 A3004 RMK A01 T03040056  RH  022%=      5-min Rain = 0
KMNS 120515Z 22009KT 30/06 A3004 RMK A01 T03030056  RH  022%=      5-min Rain = 0
KMNS 120520Z 22008KT 30/06 A3004 RMK A01 T03030055  RH  021%=      5-min Rain = 0
KMNS 120525Z 24005KT 30/06 A3005 RMK A01 T03010055  RH  022%=      5-min Rain = 0
KMNS 120530Z 33006KT 30/06 A3006 RMK A01 T02950057  RH  023%=      5-min Rain = 0
KMNS 120535Z 01007KT 28/06 A3006 RMK A01 T02820060  RH  025%=      5-min Rain = 0
KMNS 120540Z 02006KT 28/06 A3006 RMK A01 T02790061  RH  026%=      5-min Rain = 0
KMNS 120545Z 35005KT 29/06 A3006 RMK A01 T02860058  RH  024%=      5-min Rain = 0
KMNS 120550Z 33005KT 30/06 A3007 RMK A01 T02960055  RH  022%=      5-min Rain = 0
KMNS 120555Z 32006KT 30/05 A3007 RMK A01 T02950054  RH  022%=      5-min Rain = 0
KMNS 120600Z 33010KT 29/06 A3008 RMK A01 T02930055  RH  023%=      5-min Rain = 0
KMNS 120605Z 34010KT 30/05 A3009 RMK A01 T02970054  RH  022%=      5-min Rain = 0
KMNS 120610Z 36007G12KT 31/05 A3009 RMK A01 T03100051  RH  020%=      5-min Rain = 0
KMNS 120615Z 00010KT 31/05 A3009 RMK A01 T03060050  RH  020%=      5-min Rain = 0
KMNS 120620Z 34007KT 31/05 A301 RMK A01 T03050051  RH  021%=      5-min Rain = 0
KMNS 120625Z 33008G14KT 30/05 A301 RMK A01 T03030053  RH  021%=      5-min Rain = 0
KMNS 120630Z 34009G14KT 31/05 A301 RMK A01 T03120051  RH  020%=      5-min Rain = 0
KMNS 120635Z 35007KT 31/05 A301 RMK A01 T03090052  RH  020%=      5-min Rain = 0
KMNS 120640Z 33005KT 31/05 A301 RMK A01 T03070052  RH  020%=      5-min Rain = 0
KMNS 120645Z 35008KT 31/05 A301 RMK A01 T03090053  RH  020%=      5-min Rain = 0
KMNS 120650Z 00008KT 29/06 A301 RMK A01 T02940057  RH  023%=      5-min Rain = 0
KMNS 120655Z 02009KT 29/06 A3011 RMK A01 T02900059  RH  024%=      5-min Rain = 0
KMNS 120700Z 03009KT 29/07 A3011 RMK A01 T02910065  RH  025%=      5-min Rain = 0
KMNS 120705Z 02008KT 28/07 A3011 RMK A01 T02830067  RH  026%=      5-min Rain = 0
KMNS 120710Z 02008KT 28/07 A3011 RMK A01 T02800069  RH  027%=      5-min Rain = 0
KMNS 120715Z 02007KT 28/07 A3011 RMK A01 T02780071  RH  028%=      5-min Rain = 0
KMNS 120720Z 02005KT 27/07 A3011 RMK A01 T02730073  RH  029%=      5-min Rain = 0
KMNS 120725Z 04007KT 27/07 A3011 RMK A01 T02710073  RH  029%=      5-min Rain = 0
KMNS 120730Z 04004KT 27/07 A301 RMK A01 T02690074  RH  030%=      5-min Rain = 0
KMNS 120735Z 04004KT 27/08 A301 RMK A01 T02690075  RH  030%=      5-min Rain = 0
KMNS 120740Z 05005KT 27/08 A301 RMK A01 T02690077  RH  030%=      5-min Rain = 0
KMNS 120745Z 05006KT 27/08 A301 RMK A01 T02690078  RH  031%=      5-min Rain = 0
KMNS 120750Z 07007KT 27/08 A301 RMK A01 T02700080  RH  031%=      5-min Rain = 0
KMNS 120755Z 07009KT 27/08 A301 RMK A01 T02720081  RH  031%=      5-min Rain = 0
KMNS 120800Z 08008KT 27/08 A301 RMK A01 T02720082  RH  031%=      5-min Rain = 0
KMNS 120805Z 08006KT 27/08 A3009 RMK A01 T02670084  RH  032%=      5-min Rain = 0
KMNS 120810Z 11003KT 26/09 A3009 RMK A01 T02640085  RH  033%=      5-min Rain = 0
KMNS 120815Z 16002KT 26/08 A3008 RMK A01 T02620080  RH  032%=      5-min Rain = 0
KMNS 120820Z 16002KT 27/08 A3009 RMK A01 T02650081  RH  032%=      5-min Rain = 0
KMNS 120825Z 19002KT 27/08 A3008 RMK A01 T02650083  RH  032%=      5-min Rain = 0
KMNS 120830Z 16002KT 27/08 A3008 RMK A01 T02650083  RH  033%=      5-min Rain = 0
KMNS 120835Z 15002KT 27/08 A3008 RMK A01 T02650083  RH  033%=      5-min Rain = 0
KMNS 120840Z 12002KT 26/08 A3008 RMK A01 T02640084  RH  033%=      5-min Rain = 0
KMNS 120845Z 16003KT 27/09 A3007 RMK A01 T02650086  RH  033%=      5-min Rain = 0
KMNS 120850Z 15002KT 26/09 A3007 RMK A01 T02620088  RH  034%=      5-min Rain = 0
KMNS 120855Z 16002KT 26/09 A3007 RMK A01 T02600089  RH  035%=      5-min Rain = 0
KMNS 120900Z 16002KT 26/09 A3007 RMK A01 T02610087  RH  034%=      5-min Rain = 0
KMNS 120905Z 17002KT 26/09 A3007 RMK A01 T02620087  RH  034%=      5-min Rain = 0
KMNS 120910Z 17003KT 26/09 A3007 RMK A01 T02570088  RH  035%=      5-min Rain = 0
KMNS 120915Z 17002KT 25/09 A3007 RMK A01 T02530088  RH  036%=      5-min Rain = 0
KMNS 120920Z 19002KT 25/09 A3008 RMK A01 T02510089  RH  037%=      5-min Rain = 0
KMNS 120925Z 19002KT 25/09 A3008 RMK A01 T02530089  RH  036%=      5-min Rain = 0
KMNS 120930Z 19002KT 25/09 A3007 RMK A01 T02530089  RH  036%=      5-min Rain = 0
KMNS 120935Z 20002KT 25/09 A3007 RMK A01 T02520088  RH  036%=      5-min Rain = 0
KMNS 120940Z 18003KT 25/09 A3007 RMK A01 T02500088  RH  037%=      5-min Rain = 0
KMNS 120945Z 19004KT 25/09 A3007 RMK A01 T02450093  RH  039%=      5-min Rain = 0
KMNS 120950Z 18004KT 24/09 A3007 RMK A01 T02430093  RH  040%=      5-min Rain = 0
KMNS 120955Z 19004KT 24/08 A3007 RMK A01 T02430084  RH  037%=      5-min Rain = 0
KMNS 121000Z 19003KT 25/08 A3007 RMK A01 T02470083  RH  036%=      5-min Rain = 0
KMNS 121005Z 19004KT 25/08 A3007 RMK A01 T02480084  RH  036%=      5-min Rain = 0
KMNS 121010Z 19004KT 25/08 A3007 RMK A01 T02490082  RH  036%=      5-min Rain = 0
KMNS 121015Z 20004KT 25/08 A3007 RMK A01 T02510080  RH  035%=      5-min Rain = 0
KMNS 121020Z 19004KT 25/08 A3007 RMK A01 T02490083  RH  036%=      5-min Rain = 0
KMNS 121025Z 20004KT 25/08 A3007 RMK A01 T02480082  RH  036%=      5-min Rain = 0
KMNS 121030Z 21003KT 25/09 A3007 RMK A01 T02470086  RH  037%=      5-min Rain = 0
KMNS 121035Z 21003KT 24/09 A3007 RMK A01 T02440087  RH  038%=      5-min Rain = 0
KMNS 121040Z 21003KT 24/09 A3007 RMK A01 T02430090  RH  039%=      5-min Rain = 0
KMNS 121045Z 18003KT 24/09 A3007 RMK A01 T02430090  RH  039%=      5-min Rain = 0
KMNS 121050Z 18004KT 24/09 A3007 RMK A01 T02430089  RH  039%=      5-min Rain = 0
KMNS 121055Z 18004KT 25/08 A3008 RMK A01 T02450084  RH  037%=      5-min Rain = 0
KMNS 121100Z 18005KT 25/08 A3008 RMK A01 T02490081  RH  035%=      5-min Rain = 0
KMNS 121105Z 17005KT 25/08 A3008 RMK A01 T02520080  RH  034%=      5-min Rain = 0
KMNS 121110Z 18005KT 25/08 A3008 RMK A01 T02480082  RH  036%=      5-min Rain = 0
KMNS 121115Z 18005KT 25/08 A3008 RMK A01 T02450082  RH  037%=      5-min Rain = 0
KMNS 121120Z 18004KT 25/08 A3008 RMK A01 T02460082  RH  036%=      5-min Rain = 0
KMNS 121125Z 17004KT 24/08 A3008 RMK A01 T02440083  RH  037%=      5-min Rain = 0
KMNS 121130Z 17004KT 24/08 A3009 RMK A01 T02430083  RH  037%=      5-min Rain = 0
KMNS 121135Z 16005KT 24/08 A3008 RMK A01 T02410083  RH  037%=      5-min Rain = 0
KMNS 121140Z 16007KT 25/08 A3008 RMK A01 T02470081  RH  036%=      5-min Rain = 0
KMNS 121145Z 16008KT 25/08 A3008 RMK A01 T02540080  RH  034%=      5-min Rain = 0
KMNS 121150Z 16008KT 26/08 A3008 RMK A01 T02570080  RH  033%=      5-min Rain = 0
KMNS 121155Z 16009KT 26/08 A3008 RMK A01 T02570081  RH  034%=      5-min Rain = 0
KMNS 121200Z 15009KT 25/08 A3008 RMK A01 T02540081  RH  034%=      5-min Rain = 0
KMNS 121205Z 15008KT 25/08 A3008 RMK A01 T02480081  RH  036%=      5-min Rain = 0
KMNS 121210Z 15008KT 25/08 A3008 RMK A01 T02470084  RH  036%=      5-min Rain = 0
KMNS 121215Z 15009KT 25/09 A3008 RMK A01 T02460085  RH  037%=      5-min Rain = 0
KMNS 121220Z 15009KT 25/08 A3008 RMK A01 T02490084  RH  036%=      5-min Rain = 0
KMNS 121225Z 16009KT 26/09 A3008 RMK A01 T02550085  RH  035%=      5-min Rain = 0
KMNS 121230Z 17007KT 26/08 A3008 RMK A01 T02580084  RH  034%=      5-min Rain = 0
KMNS 121235Z 18005KT 25/09 A3008 RMK A01 T02530087  RH  036%=      5-min Rain = 0
KMNS 121240Z 17005KT 25/09 A3008 RMK A01 T02490086  RH  037%=      5-min Rain = 0
KMNS 121245Z 16007KT 25/09 A3008 RMK A01 T02510085  RH  036%=      5-min Rain = 0
KMNS 121250Z 15008KT 25/08 A3008 RMK A01 T02540084  RH  035%=      5-min Rain = 0
KMNS 121255Z 15008KT 25/08 A3008 RMK A01 T02540083  RH  035%=      5-min Rain = 0
KMNS 121300Z 14007KT 25/09 A3008 RMK A01 T02530085  RH  035%=      5-min Rain = 0
KMNS 121305Z 15008KT 25/09 A3008 RMK A01 T02520086  RH  036%=      5-min Rain = 0
KMNS 121310Z 15008KT 25/09 A3008 RMK A01 T02540087  RH  036%=      5-min Rain = 0
KMNS 121315Z 15008KT 26/09 A3008 RMK A01 T02570088  RH  035%=      5-min Rain = 0
KMNS 121320Z 15008KT 26/09 A3008 RMK A01 T02600089  RH  035%=      5-min Rain = 0
KMNS 121325Z 16008KT 26/09 A3008 RMK A01 T02620090  RH  035%=      5-min Rain = 0
KMNS 121330Z 17008KT 27/09 A3008 RMK A01 T02650090  RH  034%=      5-min Rain = 0
KMNS 121335Z 16009KT 26/09 A3008 RMK A01 T02630091  RH  035%=      5-min Rain = 0
KMNS 121340Z 16008KT 26/09 A3008 RMK A01 T02630091  RH  035%=      5-min Rain = 0
KMNS 121345Z 15008KT 26/09 A3008 RMK A01 T02630090  RH  034%=      5-min Rain = 0
KMNS 121350Z 14007KT 26/09 A3008 RMK A01 T02630091  RH  035%=      5-min Rain = 0
KMNS 121355Z 15008KT 26/09 A3008 RMK A01 T02630091  RH  035%=      5-min Rain = 0
KMNS 121400Z 15007KT 26/09 A3009 RMK A01 T02630092  RH  035%=      5-min Rain = 0
KMNS 121405Z 15008KT 26/09 A3009 RMK A01 T02640094  RH  035%=      5-min Rain = 0
KMNS 121410Z 15008KT 26/09 A3009 RMK A01 T02640094  RH  035%=      5-min Rain = 0
KMNS 121415Z 15008KT 27/09 A301 RMK A01 T02660094  RH  035%=      5-min Rain = 0
KMNS 121420Z 15009KT 28/10 A301 RMK A01 T02770095  RH  033%=      5-min Rain = 0
KMNS 121425Z 14010KT 28/09 A301 RMK A01 T02780093  RH  032%=      5-min Rain = 0
KMNS 121430Z 14010KT 28/09 A301 RMK A01 T02800091  RH  032%=      5-min Rain = 0
KMNS 121435Z 14010KT 28/09 A301 RMK A01 T02820090  RH  031%=      5-min Rain = 0
KMNS 121440Z 15010G15KT 28/09 A301 RMK A01 T02830091  RH  031%=      5-min Rain = 0
KMNS 121445Z 15010KT 28/09 A3011 RMK A01 T02840091  RH  031%=      5-min Rain = 0
KMNS 121450Z 15010KT 28/09 A3011 RMK A01 T02840091  RH  031%=      5-min Rain = 0
KMNS 121455Z 15011KT 29/09 A3012 RMK A01 T02850091  RH  031%=      5-min Rain = 0
KMNS 121500Z 14014G20KT 29/09 A3012 RMK A01 T02870091  RH  030%=      5-min Rain = 0
KMNS 121505Z 14015KT 29/09 A3012 RMK A01 T02890092  RH  030%=      5-min Rain = 0
KMNS 121510Z 14015G20KT 29/09 A3012 RMK A01 T02880092  RH  030%=      5-min Rain = 0
KMNS 121515Z 15016G22KT 29/09 A3012 RMK A01 T02890092  RH  030%=      5-min Rain = 0
KMNS 121520Z 15016G21KT 29/09 A3011 RMK A01 T02920091  RH  029%=      5-min Rain = 0
KMNS 121525Z 15014G19KT 29/09 A3011 RMK A01 T02940092  RH  029%=      5-min Rain = 0
KMNS 121530Z 15015G20KT 30/09 A3011 RMK A01 T02960091  RH  029%=      5-min Rain = 0
KMNS 121535Z 15016G23KT 30/09 A3011 RMK A01 T03030092  RH  028%=      5-min Rain = 0
KMNS 121540Z 15018G23KT 31/09 A301 RMK A01 T03080090  RH  027%=      5-min Rain = 0
KMNS 121545Z 15017G22KT 31/09 A301 RMK A01 T03100090  RH  026%=      5-min Rain = 0
KMNS 121550Z 16016G22KT 32/09 A301 RMK A01 T03150090  RH  026%=      5-min Rain = 0
KMNS 121555Z 15018G24KT 32/09 A301 RMK A01 T03170090  RH  025%=      5-min Rain = 0
KMNS 121600Z 15018G24KT 32/09 A3009 RMK A01 T03150089  RH  025%=      5-min Rain = 0
KMNS 121605Z 16015G22KT 32/09 A3009 RMK A01 T03190091  RH  025%=      5-min Rain = 0
KMNS 121610Z 16017G24KT 32/09 A3009 RMK A01 T03210089  RH  025%=      5-min Rain = 0
KMNS 121615Z 16018G25KT 32/09 A3009 RMK A01 T03180089  RH  025%=      5-min Rain = 0
KMNS 121620Z 17015G22KT 33/09 A3009 RMK A01 T03260090  RH  024%=      5-min Rain = 0
KMNS 121625Z 17018G23KT 32/09 A3009 RMK A01 T03240088  RH  024%=      5-min Rain = 0
KMNS 121630Z 16017KT 32/09 A3008 RMK A01 T03240087  RH  024%=      5-min Rain = 0
KMNS 121635Z 17015G21KT 33/09 A3008 RMK A01 T03330090  RH  023%=      5-min Rain = 0
KMNS 121640Z 17017G23KT 34/09 A3008 RMK A01 T03360086  RH  022%=      5-min Rain = 0
KMNS 121645Z 18018G24KT 34/09 A3008 RMK A01 T03370086  RH  022%=      5-min Rain = 0
KMNS 121650Z 17017G22KT 34/09 A3008 RMK A01 T03370086  RH  022%=      5-min Rain = 0
KMNS 121655Z 17016KT 34/09 A3007 RMK A01 T03430085  RH  021%=      5-min Rain = 0
KMNS 121700Z 18017KT 35/08 A3007 RMK A01 T03480083  RH  020%=      5-min Rain = 0
KMNS 121705Z 18017G22KT 35/08 A3007 RMK A01 T03510080  RH  019%=      5-min Rain = 0
KMNS 121710Z 17017KT 35/08 A3007 RMK A01 T03530078  RH  019%=      5-min Rain = 0
KMNS 121715Z 17016G22KT 36/08 A3007 RMK A01 T03590077  RH  018%=      5-min Rain = 0
KMNS 121720Z 18018G23KT 36/06 A3007 RMK A01 T03610064  RH  016%=      5-min Rain = 0
KMNS 121725Z 17015G21KT 37/06 A3006 RMK A01 T03680063  RH  016%=      5-min Rain = 0
KMNS 121730Z 18018G24KT 37/05 A3006 RMK A01 T03670049  RH  014%=      5-min Rain = 0
KMNS 121735Z 18018G23KT 37/05 A3006 RMK A01 T03690045  RH  014%=      5-min Rain = 0
KMNS 121740Z 18016G23KT 38/04 A3006 RMK A01 T03780040  RH  013%=      5-min Rain = 0
KMNS 121745Z 17019G27KT 38/04 A3006 RMK A01 T03780038  RH  012%=      5-min Rain = 0
KMNS 121750Z 17017G23KT 38/03 A3006 RMK A01 T03780032  RH  012%=      5-min Rain = 0
KMNS 121755Z 18017G24KT 38/04 A3005 RMK A01 T03820035  RH  012%=      5-min Rain = 0
KMNS 121800Z 16016G22KT 38/03 A3005 RMK A01 T03800025  RH  011%=      5-min Rain = 0
KMNS 121805Z 18017G23KT 38/03 A3005 RMK A01 T03840027  RH  011%=      5-min Rain = 0
KMNS 121810Z 18019G27KT 38/02 A3005 RMK A01 T03830015  RH  010%=      5-min Rain = 0
KMNS 121815Z 17017G24KT 38/03 A3005 RMK A01 T03840028  RH  011%=      5-min Rain = 0
KMNS 121820Z 20019G27KT 39/01 A3005 RMK A01 T03890009  RH  010%=      5-min Rain = 0
KMNS 121825Z 18019G27KT 39/01 A3005 RMK A01 T03910014  RH  010%=      5-min Rain = 0
KMNS 121830Z 18018G25KT 39/01 A3004 RMK A01 T03900013  RH  010%=      5-min Rain = 0
KMNS 121835Z 18019G25KT 39/03 A3004 RMK A01 T03920025  RH  011%=      5-min Rain = 0
KMNS 121840Z 19019G25KT 38/03 A3004 RMK A01 T03840029  RH  011%=      5-min Rain = 0
KMNS 121845Z 19020G26KT 39/02 A3003 RMK A01 T03930015  RH  010%=      5-min Rain = 0
KMNS 121850Z 18017G24KT 39/02 A3003 RMK A01 T03920019  RH  010%=      5-min Rain = 0
KMNS 121855Z 19018G24KT 40/02 A3003 RMK A01 T03950022  RH  010%=      5-min Rain = 0
KMNS 121900Z 18018G24KT 40/03 A3002 RMK A01 T03960031  RH  011%=      5-min Rain = 0
KMNS 121905Z 17017G22KT 39/03 A3002 RMK A01 T03930028  RH  011%=      5-min Rain = 0
KMNS 121910Z 20017G24KT 39/01 A3002 RMK A01 T03920006  RH  009%=      5-min Rain = 0
KMNS 121915Z 20017G23KT 40/02 A3002 RMK A01 T03970020  RH  010%=      5-min Rain = 0
KMNS 121920Z 18017G23KT 40/02 A3002 RMK A01 T03990023  RH  010%=      5-min Rain = 0
KMNS 121925Z 18017G23KT 40/03 A3001 RMK A01 T03960025  RH  010%=      5-min Rain = 0
KMNS 121930Z 19015G24KT 40/03 A3001 RMK A01 T03970027  RH  010%=      5-min Rain = 0
KMNS 121935Z 19018G27KT 40/03 A3001 RMK A01 T04020026  RH  010%=      5-min Rain = 0
KMNS 121940Z 19015G22KT 40/02 A30 RMK A01 T04000022  RH  010%=      5-min Rain = 0
KMNS 121945Z 20016G23KT 40/02 A30 RMK A01 T04030024  RH  010%=      5-min Rain = 0
KMNS 121950Z 19015G23KT 41/02 A30 RMK A01 T04060024  RH  010%=      5-min Rain = 0
KMNS 121955Z 20020G27KT 40/01 A2999 RMK A01 T04030014  RH  009%=      5-min Rain = 0
KMNS 122000Z 19015G24KT 40/01 A2999 RMK A01 T03990009  RH  009%=      5-min Rain = 0
KMNS 122005Z 18016G23KT 40/01 A2999 RMK A01 T04040010  RH  009%=      5-min Rain = 0
KMNS 122010Z 19017G23KT 41/01 A2999 RMK A01 T04050005  RH  008%=      5-min Rain = 0
KMNS 122015Z 20019G27KT 41/00 A2998 RMK A01 T04070003  RH  008%=      5-min Rain = 0
KMNS 122020Z 19016KT 41/00 A2998 RMK A01 T04110002  RH  008%=      5-min Rain = 0
KMNS 122025Z 19017G23KT 41/M01 A2998 RMK A01 T04061008  RH  008%=      5-min Rain = 0
KMNS 122030Z 19017G24KT 41/M01 A2998 RMK A01 T04071011  RH  007%=      5-min Rain = 0
KMNS 122035Z 19017G24KT 41/M01 A2997 RMK A01 T04091012  RH  007%=      5-min Rain = 0
KMNS 122040Z 20015G31KT 41/M01 A2997 RMK A01 T04051013  RH  007%=      5-min Rain = 0
KMNS 122045Z 22014G23KT 41/M02 A2997 RMK A01 T04131018  RH  007%=      5-min Rain = 0
KMNS 122050Z 20019G25KT 41/M02 A2996 RMK A01 T04111018  RH  007%=      5-min Rain = 0
KMNS 122055Z 19018G28KT 41/M02 A2996 RMK A01 T04091019  RH  007%=      5-min Rain = 0
KMNS 122100Z 22016G23KT 41/M02 A2996 RMK A01 T04111016  RH  007%=      5-min Rain = 0
KMNS 122105Z 20014G20KT 41/M02 A2996 RMK A01 T04131019  RH  007%=      5-min Rain = 0
KMNS 122110Z 21018G24KT 41/M02 A2996 RMK A01 T04101020  RH  007%=      5-min Rain = 0
KMNS 122115Z 21017G22KT 41/M02 A2996 RMK A01 T04131019  RH  007%=      5-min Rain = 0
KMNS 122120Z 19013KT 42/M02 A2996 RMK A01 T04151018  RH  007%=      5-min Rain = 0
KMNS 122125Z 20015G21KT 42/M02 A2995 RMK A01 T04161020  RH  007%=      5-min Rain = 0
KMNS 122130Z 21019G27KT 42/M02 A2995 RMK A01 T04171022  RH  006%=      5-min Rain = 0
KMNS 122135Z 21018G24KT 41/M03 A2995 RMK A01 T04121026  RH  006%=      5-min Rain = 0
KMNS 122140Z 20016G23KT 41/M02 A2995 RMK A01 T04131022  RH  007%=      5-min Rain = 0
KMNS 122145Z 18018KT 41/M02 A2995 RMK A01 T04101019  RH  007%=      5-min Rain = 0
KMNS 122150Z 19016KT 41/M02 A2995 RMK A01 T04091020  RH  007%=      5-min Rain = 0
KMNS 122155Z 19020G29KT 41/M02 A2994 RMK A01 T04101021  RH  007%=      5-min Rain = 0
KMNS 122200Z 19019G25KT 41/M02 A2994 RMK A01 T04091023  RH  007%=      5-min Rain = 0
KMNS 122205Z 18016G22KT 41/M02 A2994 RMK A01 T04091023  RH  007%=      5-min Rain = 0
KMNS 122210Z 19017G26KT 41/M02 A2994 RMK A01 T04121023  RH  007%=      5-min Rain = 0
KMNS 122215Z 20016G25KT 41/M03 A2994 RMK A01 T04121028  RH  006%=      5-min Rain = 0
KMNS 122220Z 19016G21KT 41/M03 A2994 RMK A01 T04091026  RH  007%=      5-min Rain = 0
KMNS 122225Z 20017G22KT 41/M02 A2994 RMK A01 T04091024  RH  007%=      5-min Rain = 0
KMNS 122230Z 21016G21KT 41/M03 A2994 RMK A01 T04111025  RH  007%=      5-min Rain = 0
KMNS 122235Z 19018G23KT 41/M03 A2994 RMK A01 T04101025  RH  007%=      5-min Rain = 0
KMNS 122240Z 19016G24KT 41/M03 A2993 RMK A01 T04111027  RH  006%=      5-min Rain = 0
KMNS 122245Z 19019G26KT 41/M03 A2993 RMK A01 T04101028  RH  006%=      5-min Rain = 0
KMNS 122250Z 19019G24KT 41/M03 A2993 RMK A01 T04091028  RH  006%=      5-min Rain = 0
KMNS 122255Z 19019G25KT 41/M03 A2994 RMK A01 T04071029  RH  007%=      5-min Rain = 0
KMNS 122300Z 19018G25KT 41/M03 A2993 RMK A01 T04061029  RH  007%=      5-min Rain = 0
KMNS 122305Z 19019G24KT 41/M03 A2993 RMK A01 T04081026  RH  007%=      5-min Rain = 0
KMNS 122310Z 19019G26KT 41/M03 A2993 RMK A01 T04081025  RH  007%=      5-min Rain = 0
KMNS 122315Z 20022G29KT 40/M03 A2993 RMK A01 T04031028  RH  007%=      5-min Rain = 0
KMNS 122320Z 19018G27KT 40/M03 A2993 RMK A01 T04011029  RH  007%=      5-min Rain = 0
KMNS 122325Z 19017G23KT 40/M03 A2993 RMK A01 T04031027  RH  007%=      5-min Rain = 0
KMNS 122330Z 20018G25KT 40/M03 A2993 RMK A01 T04041027  RH  007%=      5-min Rain = 0
KMNS 122335Z 19017G22KT 40/M03 A2993 RMK A01 T04001028  RH  007%=      5-min Rain = 0
KMNS 122340Z 19018KT 40/M03 A2993 RMK A01 T04001030  RH  007%=      5-min Rain = 0
KMNS 122345Z 18018G25KT 40/M03 A2993 RMK A01 T03981030  RH  007%=      5-min Rain = 0
KMNS 122350Z 19018KT 40/M03 A2993 RMK A01 T03971031  RH  007%=      5-min Rain = 0
KMNS 122355Z 19018G24KT 40/M03 A2993 RMK A01 T03971031  RH  007%=      5-min Rain = 0
KMNS 130000Z 19021G26KT 39/M03 A2993 RMK A01 T03911032  RH  007%=      5-min Rain = 0
KMNS 130005Z 19018G23KT 38/M03 A2993 RMK A01 T03831032  RH  007%=      5-min Rain = 0
KMNS 130010Z 19018G24KT 38/M03 A2993 RMK A01 T03841030  RH  007%=      5-min Rain = 0
KMNS 130015Z 19018G23KT 39/M03 A2992 RMK A01 T03881030  RH  007%=      5-min Rain = 0
KMNS 130020Z 19021G26KT 39/M03 A2993 RMK A01 T03871031  RH  007%=      5-min Rain = 0
KMNS 130025Z 19018G24KT 39/M03 A2993 RMK A01 T03881031  RH  007%=      5-min Rain = 0
KMNS 130030Z 19017KT 39/M03 A2993 RMK A01 T03871031  RH  007%=      5-min Rain = 0
KMNS 130035Z 19017G22KT 39/M03 A2993 RMK A01 T03871030  RH  007%=      5-min Rain = 0
KMNS 130040Z 20018G23KT 38/M03 A2993 RMK A01 T03831030  RH  007%=      5-min Rain = 0
KMNS 130045Z 19018KT 38/M03 A2993 RMK A01 T03791032  RH  007%=      5-min Rain = 0
KMNS 130050Z 19015KT 38/M03 A2993 RMK A01 T03751030  RH  008%=      5-min Rain = 0
KMNS 130055Z 19017G23KT 38/M03 A2993 RMK A01 T03751032  RH  008%=      5-min Rain = 0
KMNS 130100Z 19017KT 37/M03 A2994 RMK A01 T03731033  RH  008%=      5-min Rain = 0
KMNS 130105Z 18016KT 37/M03 A2994 RMK A01 T03701030  RH  008%=      5-min Rain = 0
KMNS 130110Z 19015G20KT 37/M03 A2994 RMK A01 T03661029  RH  008%=      5-min Rain = 0
KMNS 130115Z 18016G21KT 37/M03 A2994 RMK A01 T03651030  RH  008%=      5-min Rain = 0
KMNS 130120Z 19014KT 36/M03 A2994 RMK A01 T03631029  RH  008%=      5-min Rain = 0
KMNS 130125Z 19014KT 36/M03 A2994 RMK A01 T03591027  RH  008%=      5-min Rain = 0
KMNS 130130Z 19013KT 36/M03 A2994 RMK A01 T03561027  RH  009%=      5-min Rain = 0
KMNS 130135Z 19013KT 35/M03 A2994 RMK A01 T03531025  RH  009%=      5-min Rain = 0
KMNS 130140Z 19012KT 35/M02 A2994 RMK A01 T03511023  RH  009%=      5-min Rain = 0
KMNS 130145Z 19012KT 35/M02 A2994 RMK A01 T03481021  RH  009%=      5-min Rain = 0
KMNS 130150Z 19012KT 34/M02 A2994 RMK A01 T03441019  RH  010%=      5-min Rain = 0
KMNS 130155Z 19011KT 34/M02 A2994 RMK A01 T03411018  RH  010%=      5-min Rain = 0
KMNS 130200Z 19011KT 34/M02 A2994 RMK A01 T03391017  RH  010%=      5-min Rain = 0
KMNS 130205Z 19011KT 34/M02 A2994 RMK A01 T03361017  RH  010%=      5-min Rain = 0
KMNS 130210Z 19010KT 34/M02 A2994 RMK A01 T03351017  RH  011%=      5-min Rain = 0
KMNS 130215Z 19010KT 33/M02 A2994 RMK A01 T03331017  RH  011%=      5-min Rain = 0
KMNS 130220Z 19010KT 33/M02 A2994 RMK A01 T03311016  RH  011%=      5-min Rain = 0
KMNS 130225Z 19009KT 33/M02 A2994 RMK A01 T03291015  RH  011%=      5-min Rain = 0
KMNS 130230Z 19009KT 33/M01 A2994 RMK A01 T03261014  RH  011%=      5-min Rain = 0
KMNS 130235Z 19009KT 32/M01 A2994 RMK A01 T03231013  RH  012%=      5-min Rain = 0
KMNS 130240Z 19009KT 32/M01 A2994 RMK A01 T03211012  RH  012%=      5-min Rain = 0
KMNS 130245Z 19009KT 32/M01 A2994 RMK A01 T03201012  RH  012%=      5-min Rain = 0
KMNS 130250Z 19009KT 32/M01 A2994 RMK A01 T03161011  RH  012%=      5-min Rain = 0
KMNS 130255Z 19008KT 31/M01 A2994 RMK A01 T03131010  RH  013%=      5-min Rain = 0
KMNS 130300Z 20008KT 31/M01 A2995 RMK A01 T03111009  RH  013%=      5-min Rain = 0
KMNS 130305Z 24007G13KT 31/M01 A2996 RMK A01 T03091009  RH  013%=      5-min Rain = 0
KMNS 130310Z 30008G15KT 31/M00 A2997 RMK A01 T03111003  RH  013%=      5-min Rain = 0
KMNS 130315Z 30010G16KT 32/01 A2997 RMK A01 T03160010  RH  014%=      5-min Rain = 0
KMNS 130320Z 30009KT 33/02 A2997 RMK A01 T03250018  RH  014%=      5-min Rain = 0
KMNS 130325Z 30010G16KT 34/01 A2997 RMK A01 T03370006  RH  012%=      5-min Rain = 0
KMNS 130330Z 30010G15KT 34/01 A2997 RMK A01 T03440006  RH  012%=      5-min Rain = 0
KMNS 130335Z 27011G16KT 35/M02 A2998 RMK A01 T03491016  RH  010%=      5-min Rain = 0
KMNS 130340Z 27008KT 34/M01 A2998 RMK A01 T03441007  RH  011%=      5-min Rain = 0
KMNS 130345Z 27006KT 34/M01 A2998 RMK A01 T03361005  RH  011%=      5-min Rain = 0
KMNS 130350Z 26007KT 34/M00 A2998 RMK A01 T03371002  RH  012%=      5-min Rain = 0
KMNS 130355Z 28005KT 34/01 A2998 RMK A01 T03350012  RH  013%=      5-min Rain = 0
KMNS 130400Z 29006KT 33/02 A2999 RMK A01 T03250022  RH  015%=      5-min Rain = 0
KMNS 130405Z 27004KT 31/03 A2999 RMK A01 T03140032  RH  017%=      5-min Rain = 0
KMNS 130410Z 26005KT 31/04 A2999 RMK A01 T03100042  RH  019%=      5-min Rain = 0
KMNS 130415Z 24005KT 31/04 A30 RMK A01 T03070043  RH  019%=      5-min Rain = 0
KMNS 130420Z 24004KT 30/04 A30 RMK A01 T03020044  RH  020%=      5-min Rain = 0
KMNS 130425Z 22005KT 30/05 A30 RMK A01 T03020046  RH  020%=      5-min Rain = 0
KMNS 130430Z 23006KT 30/04 A30 RMK A01 T03020041  RH  019%=      5-min Rain = 0
KMNS 130435Z 24007KT 31/02 A30 RMK A01 T03070024  RH  017%=      5-min Rain = 0
KMNS 130440Z 23007KT 31/02 A3001 RMK A01 T03080020  RH  016%=      5-min Rain = 0
KMNS 130445Z 20007KT 31/00 A3001 RMK A01 T03140003  RH  014%=      5-min Rain = 0
KMNS 130450Z 19008KT 31/M00 A3001 RMK A01 T03121001  RH  013%=      5-min Rain = 0
KMNS 130455Z 20008KT 30/00 A3001 RMK A01 T03010003  RH  015%=      5-min Rain = 0

Page generated in 0.0101 seconds.